Terminal Aerodrome Forecast
Issued by NWS

Home | Current Version | Previous Version | Text Only | Print | Product List | Glossary On
Versions: 1 2 3 4 5 6 7 8 9 10 11 12 13 14 15 16 17 18 19
000
FTUS45 KBOU 262320
TAFBJC
TAF
KBJC 262320Z 2700/2724 VRB05KT P6SM SKC
     FM270200 20005KT P6SM SKC
     FM270600 27006KT P6SM SKC
     FM271000 28006KT P6SM SKC
     FM271500 VRB04KT P6SM SKC
     FM272100 09004KT P6SM SKC=

USA.gov is the U.S. government's official web portal to all federal, state and local government web resources and services.